sensor_id;sensor_type;location;lat;lon;timestamp;pressure;altitude;pressure_sealevel;temperature;humidity
66880;BME280;53789;51.392;10.234;2023-02-28T00:00:09;99507.38;;;-1.39;64.16
66880;BME280;53789;51.392;10.234;2023-02-28T00:00:30;99503.44;;;-1.36;63.72
66880;BME280;53789;51.392;10.234;2023-02-28T00:00:51;99504.47;;;-1.37;64.44
66880;BME280;53789;51.392;10.234;2023-02-28T00:01:12;99506.16;;;-1.36;64.58
66880;BME280;53789;51.392;10.234;2023-02-28T00:01:34;99502.63;;;-1.37;64.35
66880;BME280;53789;51.392;10.234;2023-02-28T00:01:54;99497.22;;;-1.37;64.96
66880;BME280;53789;51.392;10.234;2023-02-28T00:02:14;99509.69;;;-1.36;64.68
66880;BME280;53789;51.392;10.234;2023-02-28T00:02:35;99503.44;;;-1.36;63.59
66880;BME280;53789;51.392;10.234;2023-02-28T00:02:55;99502.63;;;-1.37;64.81
66880;BME280;53789;51.392;10.234;2023-02-28T00:03:16;99502.81;;;-1.38;63.98
66880;BME280;53789;51.392;10.234;2023-02-28T00:03:36;99503.66;;;-1.38;63.90
66880;BME280;53789;51.392;10.234;2023-02-28T00:03:57;99500.13;;;-1.38;65.01
66880;BME280;53789;51.392;10.234;2023-02-28T00:04:17;99505.31;;;-1.37;65.25
66880;BME280;53789;51.392;10.234;2023-02-28T00:04:38;99508.03;;;-1.37;64.34
66880;BME280;53789;51.392;10.234;2023-02-28T00:05:01;99506.16;;;-1.36;64.49
66880;BME280;53789;51.392;10.234;2023-02-28T00:05:23;99507.00;;;-1.36;63.46
66880;BME280;53789;51.392;10.234;2023-02-28T00:05:44;99505.13;;;-1.35;63.98
66880;BME280;53789;51.392;10.234;2023-02-28T00:06:06;99502.44;;;-1.35;64.71
66880;BME280;53789;51.392;10.234;2023-02-28T00:06:27;99507.00;;;-1.36;63.81
66880;BME280;53789;51.392;10.234;2023-02-28T00:06:47;99499.72;;;-1.35;64.95
66880;BME280;53789;51.392;10.234;2023-02-28T00:07:08;99502.44;;;-1.35;64.36
66880;BME280;53789;51.392;10.234;2023-02-28T00:07:29;99509.50;;;-1.34;65.23
66880;BME280;53789;51.392;10.234;2023-02-28T00:07:50;99501.41;;;-1.34;64.99
66880;BME280;53789;51.392;10.234;2023-02-28T00:08:11;99498.69;;;-1.34;64.52
66880;BME280;53789;51.392;10.234;2023-02-28T00:08:31;99504.94;;;-1.33;63.87
66880;BME280;53789;51.392;10.234;2023-02-28T00:08:51;99501.19;;;-1.32;64.74
66880;BME280;53789;51.392;10.234;2023-02-28T00:09:12;99508.44;;;-1.33;64.52
66880;BME280;53789;51.392;10.234;2023-02-28T00:09:32;99510.13;;;-1.32;64.89
66880;BME280;53789;51.392;10.234;2023-02-28T00:09:52;99503.91;;;-1.32;64.23
66880;BME280;53789;51.392;10.234;2023-02-28T00:10:16;99502.84;;;-1.31;65.59
66880;BME280;53789;51.392;10.234;2023-02-28T00:10:36;99499.13;;;-1.30;65.35
66880;BME280;53789;51.392;10.234;2023-02-28T00:11:02;99499.13;;;-1.30;65.25
66880;BME280;53789;51.392;10.234;2023-02-28T00:11:22;99502.44;;;-1.28;64.77
66880;BME280;53789;51.392;10.234;2023-02-28T00:11:43;99509.72;;;-1.29;65.35
66880;BME280;53789;51.392;10.234;2023-02-28T00:12:03;99496.03;;;-1.27;64.88
66880;BME280;53789;51.392;10.234;2023-02-28T00:12:24;99508.50;;;-1.26;64.53
66880;BME280;53789;51.392;10.234;2023-02-28T00:12:44;99507.66;;;-1.27;64.47
66880;BME280;53789;51.392;10.234;2023-02-28T00:13:06;99500.41;;;-1.26;64.58
66880;BME280;53789;51.392;10.234;2023-02-28T00:13:27;99507.44;;;-1.25;65.12
66880;BME280;53789;51.392;10.234;2023-02-28T00:13:48;99504.75;;;-1.25;65.53
66880;BME280;53789;51.392;10.234;2023-02-28T00:14:08;99508.31;;;-1.25;64.96
66880;BME280;53789;51.392;10.234;2023-02-28T00:14:30;99504.59;;;-1.24;65.60
66880;BME280;53789;51.392;10.234;2023-02-28T00:14:50;99499.19;;;-1.24;65.46
66880;BME280;53789;51.392;10.234;2023-02-28T00:15:11;99505.41;;;-1.23;65.73
66880;BME280;53789;51.392;10.234;2023-02-28T00:15:32;99501.88;;;-1.24;65.02
66880;BME280;53789;51.392;10.234;2023-02-28T00:16:04;99505.00;;;-1.20;65.75
66880;BME280;53789;51.392;10.234;2023-02-28T00:16:25;99503.97;;;-1.19;64.70
66880;BME280;53789;51.392;10.234;2023-02-28T00:16:45;99499.41;;;-1.19;66.11
66880;BME280;53789;51.392;10.234;2023-02-28T00:17:05;99497.53;;;-1.18;65.60
66880;BME280;53789;51.392;10.234;2023-02-28T00:17:26;99507.31;;;-1.17;64.37
66880;BME280;53789;51.392;10.234;2023-02-28T00:17:46;99506.28;;;-1.16;66.10
66880;BME280;53789;51.392;10.234;2023-02-28T00:18:06;99507.09;;;-1.15;66.11
66880;BME280;53789;51.392;10.234;2023-02-28T00:18:27;99502.31;;;-1.13;66.39
66880;BME280;53789;51.392;10.234;2023-02-28T00:18:48;99508.38;;;-1.11;64.79
66880;BME280;53789;51.392;10.234;2023-02-28T00:19:08;99502.97;;;-1.11;64.98
66880;BME280;53789;51.392;10.234;2023-02-28T00:19:28;99504.66;;;-1.10;66.00
66880;BME280;53789;51.392;10.234;2023-02-28T00:19:50;99500.06;;;-1.10;66.64
66880;BME280;53789;51.392;10.234;2023-02-28T00:20:12;99509.00;;;-1.09;65.21
66880;BME280;53789;51.392;10.234;2023-02-28T00:20:33;99503.59;;;-1.09;64.91
66880;BME280;53789;51.392;10.234;2023-02-28T00:20:53;99502.56;;;-1.08;64.20
66880;BME280;53789;51.392;10.234;2023-02-28T00:21:15;99503.41;;;-1.08;64.86
66880;BME280;53789;51.392;10.234;2023-02-28T00:21:35;99501.56;;;-1.07;65.35
66880;BME280;53789;51.392;10.234;2023-02-28T00:21:56;99504.25;;;-1.07;65.55
66880;BME280;53789;51.392;10.234;2023-02-28T00:22:18;99501.56;;;-1.07;64.56
66880;BME280;53789;51.392;10.234;2023-02-28T00:22:43;99499.88;;;-1.08;64.22
66880;BME280;53789;51.392;10.234;2023-02-28T00:23:04;99502.56;;;-1.08;63.96
66880;BME280;53789;51.392;10.234;2023-02-28T00:23:25;99498.00;;;-1.08;64.18
66880;BME280;53789;51.392;10.234;2023-02-28T00:23:46;99497.19;;;-1.08;64.26
66880;BME280;53789;51.392;10.234;2023-02-28T00:24:06;99503.41;;;-1.08;65.61
66880;BME280;53789;51.392;10.234;2023-02-28T00:24:27;99495.31;;;-1.08;65.75
66880;BME280;53789;51.392;10.234;2023-02-28T00:24:47;99499.88;;;-1.08;65.79
66880;BME280;53789;51.392;10.234;2023-02-28T00:25:09;99501.56;;;-1.07;65.27
66880;BME280;53789;51.392;10.234;2023-02-28T00:25:30;99497.19;;;-1.08;65.80
66880;BME280;53789;51.392;10.234;2023-02-28T00:25:51;99498.00;;;-1.08;64.79
66880;BME280;53789;51.392;10.234;2023-02-28T00:26:11;99500.69;;;-1.08;65.20
66880;BME280;53789;51.392;10.234;2023-02-28T00:26:32;99498.00;;;-1.08;64.62
66880;BME280;53789;51.392;10.234;2023-02-28T00:26:52;99504.25;;;-1.07;66.09
66880;BME280;53789;51.392;10.234;2023-02-28T00:27:14;99498.84;;;-1.07;65.06
66880;BME280;53789;51.392;10.234;2023-02-28T00:27:36;99504.25;;;-1.07;64.75
66880;BME280;53789;51.392;10.234;2023-02-28T00:27:56;99496.34;;;-1.09;66.00
66880;BME280;53789;51.392;10.234;2023-02-28T00:28:17;99500.06;;;-1.10;65.74
66880;BME280;53789;51.392;10.234;2023-02-28T00:28:37;99512.75;;;-1.10;65.50
66880;BME280;53789;51.392;10.234;2023-02-28T00:28:58;99499.25;;;-1.10;64.82
66880;BME280;53789;51.392;10.234;2023-02-28T00:29:18;99497.56;;;-1.11;64.54
66880;BME280;53789;51.392;10.234;2023-02-28T00:29:38;99500.28;;;-1.11;65.09
66880;BME280;53789;51.392;10.234;2023-02-28T00:29:59;99501.97;;;-1.10;65.20
66880;BME280;53789;51.392;10.234;2023-02-28T00:30:22;99502.97;;;-1.11;65.71
66880;BME280;53789;51.392;10.234;2023-02-28T00:30:43;99504.00;;;-1.12;65.59
66880;BME280;53789;51.392;10.234;2023-02-28T00:31:04;99508.38;;;-1.11;65.62
66880;BME280;53789;51.392;10.234;2023-02-28T00:31:24;99510.25;;;-1.12;65.46
66880;BME280;53789;51.392;10.234;2023-02-28T00:31:44;99500.28;;;-1.11;65.70
66880;BME280;53789;51.392;10.234;2023-02-28T00:32:06;99509.19;;;-1.11;65.69
66880;BME280;53789;51.392;10.234;2023-02-28T00:32:26;99499.25;;;-1.10;64.98
66880;BME280;53789;51.392;10.234;2023-02-28T00:32:47;99498.41;;;-1.11;65.86
66880;BME280;53789;51.392;10.234;2023-02-28T00:33:07;99504.66;;;-1.10;64.69
66880;BME280;53789;51.392;10.234;2023-02-28T00:33:28;99501.97;;;-1.10;65.05
66880;BME280;53789;51.392;10.234;2023-02-28T00:33:49;99495.69;;;-1.11;65.29
66880;BME280;53789;51.392;10.234;2023-02-28T00:34:09;99502.78;;;-1.10;65.00
66880;BME280;53789;51.392;10.234;2023-02-28T00:34:29;99500.06;;;-1.10;66.38
66880;BME280;53789;51.392;10.234;2023-02-28T00:34:50;99497.56;;;-1.11;65.29
66880;BME280;53789;51.392;10.234;2023-02-28T00:35:11;99501.09;;;-1.11;65.19
66880;BME280;53789;51.392;10.234;2023-02-28T00:35:32;99505.47;;;-1.10;64.43
66880;BME280;53789;51.392;10.234;2023-02-28T00:35:52;99505.47;;;-1.10;64.69
66880;BME280;53789;51.392;10.234;2023-02-28T00:36:20;99504.66;;;-1.10;63.97
66880;BME280;53789;51.392;10.234;2023-02-28T00:36:40;99500.28;;;-1.11;64.39
66880;BME280;53789;51.392;10.234;2023-02-28T00:37:01;99496.75;;;-1.12;65.33
66880;BME280;53789;51.392;10.234;2023-02-28T00:37:21;99502.16;;;-1.12;64.74
66880;BME280;53789;51.392;10.234;2023-02-28T00:37:42;99508.38;;;-1.11;65.24
66880;BME280;53789;51.392;10.234;2023-02-28T00:38:02;99505.69;;;-1.11;65.68
66880;BME280;53789;51.392;10.234;2023-02-28T00:38:22;99497.56;;;-1.11;64.60
66880;BME280;53789;51.392;10.234;2023-02-28T00:38:43;99497.78;;;-1.13;64.78
66880;BME280;53789;51.392;10.234;2023-02-28T00:39:03;99507.56;;;-1.12;64.80
66880;BME280;53789;51.392;10.234;2023-02-28T00:39:24;99494.88;;;-1.11;65.36
66880;BME280;53789;51.392;10.234;2023-02-28T00:39:44;99495.06;;;-1.13;64.84
66880;BME280;53789;51.392;10.234;2023-02-28T00:40:06;99499.47;;;-1.12;65.01
66880;BME280;53789;51.392;10.234;2023-02-28T00:40:26;99504.84;;;-1.12;64.25
66880;BME280;53789;51.392;10.234;2023-02-28T00:40:46;99502.97;;;-1.11;64.47
66880;BME280;53789;51.392;10.234;2023-02-28T00:41:07;99499.47;;;-1.12;64.40
66880;BME280;53789;51.392;10.234;2023-02-28T00:41:27;99504.84;;;-1.12;64.72
66880;BME280;53789;51.392;10.234;2023-02-28T00:41:48;99494.06;;;-1.12;64.46
66880;BME280;53789;51.392;10.234;2023-02-28T00:42:08;99497.56;;;-1.11;66.23
66880;BME280;53789;51.392;10.234;2023-02-28T00:42:28;99493.84;;;-1.10;64.89
66880;BME280;53789;51.392;10.234;2023-02-28T00:42:49;99507.34;;;-1.10;66.30
66880;BME280;53789;51.392;10.234;2023-02-28T00:43:09;99505.28;;;-1.08;65.89
66880;BME280;53789;51.392;10.234;2023-02-28T00:43:31;99500.91;;;-1.09;64.99
66880;BME280;53789;51.392;10.234;2023-02-28T00:43:51;99506.97;;;-1.07;65.89
66880;BME280;53789;51.392;10.234;2023-02-28T00:44:12;99506.09;;;-1.08;65.82
66880;BME280;53789;51.392;10.234;2023-02-28T00:44:32;99505.91;;;-1.06;65.27
66880;BME280;53789;51.392;10.234;2023-02-28T00:44:52;99505.91;;;-1.06;64.38
66880;BME280;53789;51.392;10.234;2023-02-28T00:45:13;99507.78;;;-1.07;65.66
66880;BME280;53789;51.392;10.234;2023-02-28T00:45:33;99516.69;;;-1.06;65.91
66880;BME280;53789;51.392;10.234;2023-02-28T00:45:53;99501.56;;;-1.07;64.83
66880;BME280;53789;51.392;10.234;2023-02-28T00:46:14;99495.31;;;-1.08;65.50
66880;BME280;53789;51.392;10.234;2023-02-28T00:46:34;99505.06;;;-1.07;64.86
66880;BME280;53789;51.392;10.234;2023-02-28T00:46:54;99503.41;;;-1.08;65.57
66880;BME280;53789;51.392;10.234;2023-02-28T00:47:15;99507.97;;;-1.08;64.96
66880;BME280;53789;51.392;10.234;2023-02-28T00:47:35;99515.88;;;-1.07;64.73
66880;BME280;53789;51.392;10.234;2023-02-28T00:47:56;99506.75;;;-1.06;66.22
66880;BME280;53789;51.392;10.234;2023-02-28T00:48:16;99498.84;;;-1.07;64.93
66880;BME280;53789;51.392;10.234;2023-02-28T00:48:36;99504.06;;;-1.06;65.17
66880;BME280;53789;51.392;10.234;2023-02-28T00:48:57;99500.69;;;-1.08;65.34
66880;BME280;53789;51.392;10.234;2023-02-28T00:49:17;99502.38;;;-1.07;65.03
66880;BME280;53789;51.392;10.234;2023-02-28T00:49:38;99503.19;;;-1.06;65.25
66880;BME280;53789;51.392;10.234;2023-02-28T00:49:58;99504.06;;;-1.06;65.00
66880;BME280;53789;51.392;10.234;2023-02-28T00:50:20;99503.00;;;-1.05;64.78
66880;BME280;53789;51.392;10.234;2023-02-28T00:50:40;99501.97;;;-1.04;65.30
66880;BME280;53789;51.392;10.234;2023-02-28T00:51:01;99504.06;;;-1.06;64.85
66880;BME280;53789;51.392;10.234;2023-02-28T00:51:21;99505.69;;;-1.05;65.52
66880;BME280;53789;51.392;10.234;2023-02-28T00:51:41;99504.88;;;-1.05;65.97
66880;BME280;53789;51.392;10.234;2023-02-28T00:52:02;99509.25;;;-1.04;65.02
66880;BME280;53789;51.392;10.234;2023-02-28T00:52:23;99506.56;;;-1.04;65.35
66880;BME280;53789;51.392;10.234;2023-02-28T00:52:43;99503.00;;;-1.05;65.35
66880;BME280;53789;51.392;10.234;2023-02-28T00:53:04;99503.84;;;-1.04;65.00
66880;BME280;53789;51.392;10.234;2023-02-28T00:53:24;99503.84;;;-1.04;66.42
66880;BME280;53789;51.392;10.234;2023-02-28T00:53:44;99506.56;;;-1.04;66.40
66880;BME280;53789;51.392;10.234;2023-02-28T00:54:05;99503.00;;;-1.05;66.65
66880;BME280;53789;51.392;10.234;2023-02-28T00:54:25;99510.28;;;-1.05;65.71
66880;BME280;53789;51.392;10.234;2023-02-28T00:54:45;99507.56;;;-1.05;65.46
66880;BME280;53789;51.392;10.234;2023-02-28T00:55:06;99505.69;;;-1.05;65.43
66880;BME280;53789;51.392;10.234;2023-02-28T00:55:26;99509.47;;;-1.06;65.72
66880;BME280;53789;51.392;10.234;2023-02-28T00:55:47;99514.00;;;-1.06;65.79
66880;BME280;53789;51.392;10.234;2023-02-28T00:56:07;99514.00;;;-1.06;65.05
66880;BME280;53789;51.392;10.234;2023-02-28T00:56:28;99505.91;;;-1.06;65.56
66880;BME280;53789;51.392;10.234;2023-02-28T00:56:49;99504.25;;;-1.07;66.12
66880;BME280;53789;51.392;10.234;2023-02-28T00:57:09;99504.25;;;-1.07;65.55
66880;BME280;53789;51.392;10.234;2023-02-28T00:57:30;99501.75;;;-1.09;66.27
66880;BME280;53789;51.392;10.234;2023-02-28T00:57:50;99508.38;;;-1.11;66.45
66880;BME280;53789;51.392;10.234;2023-02-28T00:58:10;99508.19;;;-1.10;65.42
66880;BME280;53789;51.392;10.234;2023-02-28T00:58:31;99509.00;;;-1.09;66.63
66880;BME280;53789;51.392;10.234;2023-02-28T00:58:51;99516.06;;;-1.08;66.46
66880;BME280;53789;51.392;10.234;2023-02-28T00:59:13;99506.50;;;-1.11;66.82
66880;BME280;53789;51.392;10.234;2023-02-28T00:59:34;99513.56;;;-1.10;67.18
66880;BME280;53789;51.392;10.234;2023-02-28T00:59:54;99510.06;;;-1.10;66.06
66880;BME280;53789;51.392;10.234;2023-02-28T01:00:15;99509.84;;;-1.09;66.57
66880;BME280;53789;51.392;10.234;2023-02-28T01:00:35;99509.19;;;-1.11;65.80
66880;BME280;53789;51.392;10.234;2023-02-28T01:00:55;99513.56;;;-1.10;65.97
66880;BME280;53789;51.392;10.234;2023-02-28T01:01:16;99510.88;;;-1.10;65.93
66880;BME280;53789;51.392;10.234;2023-02-28T01:01:36;99511.69;;;-1.09;66.88
66880;BME280;53789;51.392;10.234;2023-02-28T01:01:56;99517.97;;;-1.09;66.41
66880;BME280;53789;51.392;10.234;2023-02-28T01:02:17;99509.00;;;-1.09;65.44
66880;BME280;53789;51.392;10.234;2023-02-28T01:02:37;99506.50;;;-1.11;66.81
66880;BME280;53789;51.392;10.234;2023-02-28T01:02:57;99511.06;;;-1.11;66.61
66880;BME280;53789;51.392;10.234;2023-02-28T01:03:19;99503.81;;;-1.11;66.98
66880;BME280;53789;51.392;10.234;2023-02-28T01:03:40;99511.91;;;-1.11;66.62
66880;BME280;53789;51.392;10.234;2023-02-28T01:04:00;99506.50;;;-1.11;65.67
66880;BME280;53789;51.392;10.234;2023-02-28T01:04:21;99508.38;;;-1.11;67.27
66880;BME280;53789;51.392;10.234;2023-02-28T01:04:41;99507.56;;;-1.12;66.99
66880;BME280;53789;51.392;10.234;2023-02-28T01:05:01;99505.69;;;-1.11;66.97
66880;BME280;53789;51.392;10.234;2023-02-28T01:05:22;99506.69;;;-1.12;66.09
66880;BME280;53789;51.392;10.234;2023-02-28T01:05:42;99510.25;;;-1.12;66.05
66880;BME280;53789;51.392;10.234;2023-02-28T01:06:02;99504.84;;;-1.12;65.20
66880;BME280;53789;51.392;10.234;2023-02-28T01:06:23;99505.69;;;-1.11;65.74
66880;BME280;53789;51.392;10.234;2023-02-28T01:06:43;99507.72;;;-1.13;65.52
66880;BME280;53789;51.392;10.234;2023-02-28T01:07:04;99505.88;;;-1.13;65.79
66880;BME280;53789;51.392;10.234;2023-02-28T01:07:24;99505.88;;;-1.13;64.91
66880;BME280;53789;51.392;10.234;2023-02-28T01:07:45;99506.91;;;-1.14;65.56
66880;BME280;53789;51.392;10.234;2023-02-28T01:08:05;99511.28;;;-1.13;65.01
66880;BME280;53789;51.392;10.234;2023-02-28T01:08:25;99501.50;;;-1.14;66.01
66880;BME280;53789;51.392;10.234;2023-02-28T01:08:46;99511.47;;;-1.14;65.28
66880;BME280;53789;51.392;10.234;2023-02-28T01:09:07;99505.22;;;-1.15;64.63
66880;BME280;53789;51.392;10.234;2023-02-28T01:09:28;99511.47;;;-1.14;64.61
66880;BME280;53789;51.392;10.234;2023-02-28T01:09:48;99510.81;;;-1.16;65.06
66880;BME280;53789;51.392;10.234;2023-02-28T01:10:09;99504.59;;;-1.17;64.58
66880;BME280;53789;51.392;10.234;2023-02-28T01:10:29;99510.22;;;-1.19;64.83
66880;BME280;53789;51.392;10.234;2023-02-28T01:10:50;99503.97;;;-1.19;65.97
66880;BME280;53789;51.392;10.234;2023-02-28T01:11:12;99505.63;;;-1.18;65.52
66880;BME280;53789;51.392;10.234;2023-02-28T01:11:35;99499.41;;;-1.19;65.53
66880;BME280;53789;51.392;10.234;2023-02-28T01:11:55;99509.38;;;-1.19;65.09
66880;BME280;53789;51.392;10.234;2023-02-28T01:12:16;99508.53;;;-1.20;65.47
66880;BME280;53789;51.392;10.234;2023-02-28T01:12:36;99498.97;;;-1.22;66.17
66880;BME280;53789;51.392;10.234;2023-02-28T01:12:57;99496.28;;;-1.22;66.02
66880;BME280;53789;51.392;10.234;2023-02-28T01:13:17;99499.81;;;-1.22;65.42
66880;BME280;53789;51.392;10.234;2023-02-28T01:13:38;99502.72;;;-1.23;65.83
66880;BME280;53789;51.392;10.234;2023-02-28T01:13:59;99500.00;;;-1.23;65.58
66880;BME280;53789;51.392;10.234;2023-02-28T01:14:20;99502.06;;;-1.25;66.66
66880;BME280;53789;51.392;10.234;2023-02-28T01:14:40;99502.91;;;-1.25;66.96
66880;BME280;53789;51.392;10.234;2023-02-28T01:15:00;99506.63;;;-1.26;66.51
66880;BME280;53789;51.392;10.234;2023-02-28T01:15:21;99499.56;;;-1.27;66.31
66880;BME280;53789;51.392;10.234;2023-02-28T01:15:46;99499.56;;;-1.27;65.72
66880;BME280;53789;51.392;10.234;2023-02-28T01:16:09;99495.22;;;-1.28;66.80
66880;BME280;53789;51.392;10.234;2023-02-28T01:16:29;99504.13;;;-1.27;66.36
66880;BME280;53789;51.392;10.234;2023-02-28T01:16:49;99503.31;;;-1.28;65.79
66880;BME280;53789;51.392;10.234;2023-02-28T01:17:10;99494.34;;;-1.28;65.63
66880;BME280;53789;51.392;10.234;2023-02-28T01:17:30;99504.13;;;-1.27;66.77
66880;BME280;53789;51.392;10.234;2023-02-28T01:17:50;99495.22;;;-1.28;66.72
66880;BME280;53789;51.392;10.234;2023-02-28T01:18:11;99498.31;;;-1.31;66.57
66880;BME280;53789;51.392;10.234;2023-02-28T01:18:31;99493.94;;;-1.32;65.96
66880;BME280;53789;51.392;10.234;2023-02-28T01:18:52;99495.81;;;-1.32;66.23
66880;BME280;53789;51.392;10.234;2023-02-28T01:19:13;99497.44;;;-1.31;65.97
66880;BME280;53789;51.392;10.234;2023-02-28T01:19:33;99494.75;;;-1.31;66.34
66880;BME280;53789;51.392;10.234;2023-02-28T01:19:55;99496.44;;;-1.30;67.16
66880;BME280;53789;51.392;10.234;2023-02-28T01:20:15;99494.56;;;-1.30;66.05
66880;BME280;53789;51.392;10.234;2023-02-28T01:20:37;99494.75;;;-1.31;66.51
66880;BME280;53789;51.392;10.234;2023-02-28T01:20:57;99490.22;;;-1.31;66.43
66880;BME280;53789;51.392;10.234;2023-02-28T01:21:21;99495.59;;;-1.31;66.27
66880;BME280;53789;51.392;10.234;2023-02-28T01:21:41;99498.50;;;-1.32;66.08
66880;BME280;53789;51.392;10.234;2023-02-28T01:22:05;99509.31;;;-1.32;66.00
66880;BME280;53789;51.392;10.234;2023-02-28T01:22:26;99500.16;;;-1.31;66.20
66880;BME280;53789;51.392;10.234;2023-02-28T01:22:46;99509.31;;;-1.32;67.06
66880;BME280;53789;51.392;10.234;2023-02-28T01:23:06;99499.31;;;-1.32;66.73
66880;BME280;53789;51.392;10.234;2023-02-28T01:23:27;99498.50;;;-1.32;66.19
66880;BME280;53789;51.392;10.234;2023-02-28T01:23:48;99494.94;;;-1.33;66.62
66880;BME280;53789;51.392;10.234;2023-02-28T01:24:09;99494.13;;;-1.33;66.31
66880;BME280;53789;51.392;10.234;2023-02-28T01:24:29;99505.75;;;-1.33;65.69
66880;BME280;53789;51.392;10.234;2023-02-28T01:24:49;99492.44;;;-1.34;66.67
66880;BME280;53789;51.392;10.234;2023-02-28T01:25:09;99497.84;;;-1.34;66.14
66880;BME280;53789;51.392;10.234;2023-02-28T01:25:30;99500.34;;;-1.33;66.99
66880;BME280;53789;51.392;10.234;2023-02-28T01:25:51;99494.31;;;-1.35;66.64
66880;BME280;53789;51.392;10.234;2023-02-28T01:26:15;99503.25;;;-1.34;66.40
66880;BME280;53789;51.392;10.234;2023-02-28T01:26:36;99495.34;;;-1.36;66.74
66880;BME280;53789;51.392;10.234;2023-02-28T01:26:57;99497.03;;;-1.35;66.32
66880;BME280;53789;51.392;10.234;2023-02-28T01:27:17;99498.69;;;-1.34;65.79
66880;BME280;53789;51.392;10.234;2023-02-28T01:27:37;99494.13;;;-1.33;66.97
66880;BME280;53789;51.392;10.234;2023-02-28T01:27:57;99500.56;;;-1.34;67.00
66880;BME280;53789;51.392;10.234;2023-02-28T01:28:18;99498.06;;;-1.36;66.89
66880;BME280;53789;51.392;10.234;2023-02-28T01:28:38;99494.53;;;-1.37;66.85
66880;BME280;53789;51.392;10.234;2023-02-28T01:28:58;99487.25;;;-1.36;66.48
66880;BME280;53789;51.392;10.234;2023-02-28T01:29:19;99498.91;;;-1.36;66.31
66880;BME280;53789;51.392;10.234;2023-02-28T01:29:39;99498.69;;;-1.34;66.86
66880;BME280;53789;51.392;10.234;2023-02-28T01:29:59;99492.44;;;-1.34;66.97
66880;BME280;53789;51.392;10.234;2023-02-28T01:30:20;99495.16;;;-1.34;65.86
66880;BME280;53789;51.392;10.234;2023-02-28T01:30:40;99496.38;;;-1.37;65.79
66880;BME280;53789;51.392;10.234;2023-02-28T01:31:01;99497.44;;;-1.38;65.06
66880;BME280;53789;51.392;10.234;2023-02-28T01:31:22;99493.66;;;-1.37;66.21
66880;BME280;53789;51.392;10.234;2023-02-28T01:31:42;99501.78;;;-1.37;66.33
66880;BME280;53789;51.392;10.234;2023-02-28T01:32:03;99500.94;;;-1.38;66.13
66880;BME280;53789;51.392;10.234;2023-02-28T01:32:23;99496.56;;;-1.39;65.82
66880;BME280;53789;51.392;10.234;2023-02-28T01:32:43;99494.94;;;-1.40;66.16
66880;BME280;53789;51.392;10.234;2023-02-28T01:33:04;99493.25;;;-1.41;66.03
66880;BME280;53789;51.392;10.234;2023-02-28T01:33:24;99500.31;;;-1.40;65.59
66880;BME280;53789;51.392;10.234;2023-02-28T01:33:45;99502.81;;;-1.38;65.96
66880;BME280;53789;51.392;10.234;2023-02-28T01:34:05;99495.75;;;-1.39;65.12
66880;BME280;53789;51.392;10.234;2023-02-28T01:34:26;99494.06;;;-1.40;65.69
66880;BME280;53789;51.392;10.234;2023-02-28T01:34:46;99492.22;;;-1.40;65.23
66880;BME280;53789;51.392;10.234;2023-02-28T01:35:06;99488.47;;;-1.39;65.18
66880;BME280;53789;51.392;10.234;2023-02-28T01:35:27;99485.78;;;-1.39;65.65
66880;BME280;53789;51.392;10.234;2023-02-28T01:35:48;99493.88;;;-1.39;66.33
66880;BME280;53789;51.392;10.234;2023-02-28T01:36:18;99485.78;;;-1.39;66.03
66880;BME280;53789;51.392;10.234;2023-02-28T01:36:38;99498.06;;;-1.36;66.12
66880;BME280;53789;51.392;10.234;2023-02-28T01:36:59;99494.53;;;-1.37;66.62
66880;BME280;53789;51.392;10.234;2023-02-28T01:37:19;99490.81;;;-1.36;66.52
66880;BME280;53789;51.392;10.234;2023-02-28T01:37:39;99493.50;;;-1.36;66.95
66880;BME280;53789;51.392;10.234;2023-02-28T01:38:00;99486.22;;;-1.35;67.46
66880;BME280;53789;51.392;10.234;2023-02-28T01:38:20;99488.53;;;-1.32;66.41
66880;BME280;53789;51.392;10.234;2023-02-28T01:38:41;99495.59;;;-1.31;67.21
66880;BME280;53789;51.392;10.234;2023-02-28T01:39:02;99487.31;;;-1.29;67.24
66880;BME280;53789;51.392;10.234;2023-02-28T01:39:22;99495.22;;;-1.28;67.57
66880;BME280;53789;51.392;10.234;2023-02-28T01:39:42;99486.06;;;-1.27;67.04
66880;BME280;53789;51.392;10.234;2023-02-28T01:40:03;99486.91;;;-1.26;66.45
66880;BME280;53789;51.392;10.234;2023-02-28T01:40:24;99484.00;;;-1.25;67.28
66880;BME280;53789;51.392;10.234;2023-02-28T01:40:44;99486.50;;;-1.23;67.55
66880;BME280;53789;51.392;10.234;2023-02-28T01:41:06;99484.44;;;-1.21;67.16
66880;BME280;53789;51.392;10.234;2023-02-28T01:41:29;99482.59;;;-1.21;66.55
66880;BME280;53789;51.392;10.234;2023-02-28T01:41:50;99493.38;;;-1.21;67.48
66880;BME280;53789;51.392;10.234;2023-02-28T01:42:10;99481.31;;;-1.18;66.83
66880;BME280;53789;51.392;10.234;2023-02-28T01:42:31;99487.59;;;-1.17;68.28
66880;BME280;53789;51.392;10.234;2023-02-28T01:42:51;99483.00;;;-1.17;67.18
66880;BME280;53789;51.392;10.234;2023-02-28T01:43:24;99480.94;;;-1.15;67.74
66880;BME280;53789;51.392;10.234;2023-02-28T01:44:54;99484.28;;;-1.13;66.47
66880;BME280;53789;51.392;10.234;2023-02-28T01:45:16;99479.69;;;-1.12;67.16
66880;BME280;53789;51.392;10.234;2023-02-28T01:45:38;99486.78;;;-1.11;67.89
66880;BME280;53789;51.392;10.234;2023-02-28T01:45:59;99477.66;;;-1.10;67.83
66880;BME280;53789;51.392;10.234;2023-02-28T01:46:19;99479.31;;;-1.09;66.63
66880;BME280;53789;51.392;10.234;2023-02-28T01:46:39;99477.66;;;-1.10;67.29
66880;BME280;53789;51.392;10.234;2023-02-28T01:47:00;99482.19;;;-1.11;67.66
66880;BME280;53789;51.392;10.234;2023-02-28T01:47:21;99474.09;;;-1.11;66.91
66880;BME280;53789;51.392;10.234;2023-02-28T01:47:43;99482.19;;;-1.11;67.49
66880;BME280;53789;51.392;10.234;2023-02-28T01:48:08;99475.97;;;-1.11;67.28
66880;BME280;53789;51.392;10.234;2023-02-28T01:48:40;99477.00;;;-1.12;66.29
66880;BME280;53789;51.392;10.234;2023-02-28T01:49:08;99481.38;;;-1.11;65.90
66880;BME280;53789;51.392;10.234;2023-02-28T01:49:29;99477.84;;;-1.12;66.19
66880;BME280;53789;51.392;10.234;2023-02-28T01:49:50;99475.31;;;-1.13;66.14
66880;BME280;53789;51.392;10.234;2023-02-28T01:50:19;99479.69;;;-1.12;66.20
66880;BME280;53789;51.392;10.234;2023-02-28T01:50:43;99479.50;;;-1.11;66.65